Airfield :
LOGIN :

Register | Disclaimer

   EN    FR    IT 

 










Legend :    VFR   Marginal VFR   IFR   Intensive IFR   Very Intensive IFR
Visi :
Ceiling :
>= 8 km
>= 3000ft
5 to 8 km
1000 to 3000 ft
1500m to 5 km
500 to 1000 ft
800 to 1500m
200 to 500 ft
< 800m
< 200 ft
Symbols :   Thunderstorms  Fog  Heavy snow  Heavy precipitations  Wind > 20 kt
SIGMETs :     Misc.  Thunderstorms  Icing  Turbulence  Mountain Waves  Volcanic Ashes







- Airport Elevation : 13 ft
- IATA code : LYX
- Download approach charts


EGMD - Lydd

CURRENT METAR :
  • 211120Z 11009KT 8000 BKN004 17/16 Q1022

EXPIRED METARs :
  • 211050Z 12009KT 4500 BR BKN004 OVC008 17/16 Q1021
  • 211020Z 13010KT 8000 BKN005 OVC010 16/16 Q1022
  • 210950Z 13010KT 6000 -DZ BKN005 OVC017 16/16 Q1021
  • 210920Z 13011KT 9999 FEW006 OVC018 16/16 Q1021
  • 210850Z 14011KT 9000 FEW005 OVC017 16/16 Q1021

TAF TAF EGMD
Valid from the 21 at 12:00 until the 21 at 21:00 UTC


211055Z 2112/2121 14012KT 3000 BR BKN004
BECMG 2112/2115 6000 NSW BKN012
TEMPO 2112/2119 9999 SCT012
ATIS : +44 1797 322 422
No reported NOTAMs for that airfield.



MET'MAP, your aeronautical weather chart ! - Copyright ORBIFLY December 2007 - Disclaimer

ORBIFLY MET'MAP TEAM :

Programming & Development : Alexandra Zaïnal
Concept & Development : Baudouin d'Aumeries
Co-Development & Prog : Marc-Olivier Méhu
Technical & hardware support : Manuel Goepfert

Contact : metmap@orbifly.com




SOURCES & CREDITS :

   NOAA